sensor_id;sensor_type;location;lat;lon;timestamp;pressure;altitude;pressure_sealevel;temperature;humidity
43298;BME280;28892;55.640;37.532;2023-11-18T00:02:25;99529.56;;;-1.61;48.34
43298;BME280;28892;55.640;37.532;2023-11-18T00:04:51;99538.22;;;-1.61;48.17
43298;BME280;28892;55.640;37.532;2023-11-18T00:07:18;99536.28;;;-1.57;48.37
43298;BME280;28892;55.640;37.532;2023-11-18T00:09:43;99534.56;;;-1.58;48.33
43298;BME280;28892;55.640;37.532;2023-11-18T00:12:12;99533.03;;;-1.75;48.29
43298;BME280;28892;55.640;37.532;2023-11-18T00:14:37;99532.84;;;-1.72;48.45
43298;BME280;28892;55.640;37.532;2023-11-18T00:17:03;99527.91;;;-1.62;48.58
43298;BME280;28892;55.640;37.532;2023-11-18T00:19:33;99533.84;;;-1.60;48.49
43298;BME280;28892;55.640;37.532;2023-11-18T00:22:02;99541.28;;;-1.54;48.47
43298;BME280;28892;55.640;37.532;2023-11-18T00:24:31;99545.13;;;-1.47;48.27
43298;BME280;28892;55.640;37.532;2023-11-18T00:27:00;99546.84;;;-1.46;48.53
43298;BME280;28892;55.640;37.532;2023-11-18T00:29:34;99537.81;;;-1.40;48.19
43298;BME280;28892;55.640;37.532;2023-11-18T00:32:03;99546.63;;;-1.43;48.29
43298;BME280;28892;55.640;37.532;2023-11-18T00:34:30;99543.09;;;-1.42;48.44
43298;BME280;28892;55.640;37.532;2023-11-18T00:36:56;99544.53;;;-1.50;48.33
43298;BME280;28892;55.640;37.532;2023-11-18T00:39:27;99552.41;;;-1.52;48.51
43298;BME280;28892;55.640;37.532;2023-11-18T00:41:53;99544.22;;;-1.46;48.68
43298;BME280;28892;55.640;37.532;2023-11-18T00:44:19;99551.91;;;-1.44;48.52
43298;BME280;28892;55.640;37.532;2023-11-18T00:46:44;99545.50;;;-1.38;48.56
43298;BME280;28892;55.640;37.532;2023-11-18T00:49:10;99553.22;;;-1.37;48.47
43298;BME280;28892;55.640;37.532;2023-11-18T00:51:37;99556.63;;;-1.36;48.46
43298;BME280;28892;55.640;37.532;2023-11-18T00:54:04;99552.00;;;-1.31;48.54
43298;BME280;28892;55.640;37.532;2023-11-18T00:56:32;99552.53;;;-1.26;48.02
43298;BME280;28892;55.640;37.532;2023-11-18T00:58:58;99553.56;;;-1.29;48.41
43298;BME280;28892;55.640;37.532;2023-11-18T01:01:24;99556.25;;;-1.30;48.43
43298;BME280;28892;55.640;37.532;2023-11-18T01:03:49;99562.19;;;-1.28;48.51
43298;BME280;28892;55.640;37.532;2023-11-18T01:06:15;99562.94;;;-1.26;48.53
43298;BME280;28892;55.640;37.532;2023-11-18T01:08:44;99556.34;;;-1.32;48.54
43298;BME280;28892;55.640;37.532;2023-11-18T01:11:10;99558.91;;;-1.45;48.50
43298;BME280;28892;55.640;37.532;2023-11-18T01:13:37;99566.19;;;-1.64;48.80
43298;BME280;28892;55.640;37.532;2023-11-18T01:16:03;99561.28;;;-1.69;49.03
43298;BME280;28892;55.640;37.532;2023-11-18T01:18:30;99562.94;;;-1.68;48.90
43298;BME280;28892;55.640;37.532;2023-11-18T01:20:56;99565.72;;;-1.71;48.79
43298;BME280;28892;55.640;37.532;2023-11-18T01:23:21;99568.78;;;-1.64;48.83
43298;BME280;28892;55.640;37.532;2023-11-18T01:25:47;99568.88;;;-1.66;48.88
43298;BME280;28892;55.640;37.532;2023-11-18T01:28:16;99565.81;;;-1.73;48.90
43298;BME280;28892;55.640;37.532;2023-11-18T01:30:42;99567.78;;;-1.91;49.33
43298;BME280;28892;55.640;37.532;2023-11-18T01:33:10;99570.41;;;-2.05;49.58
43298;BME280;28892;55.640;37.532;2023-11-18T01:35:36;99563.34;;;-2.03;49.44
43298;BME280;28892;55.640;37.532;2023-11-18T01:38:02;99567.22;;;-2.11;49.83
43298;BME280;28892;55.640;37.532;2023-11-18T01:40:27;99568.63;;;-2.05;49.81
43298;BME280;28892;55.640;37.532;2023-11-18T01:42:56;99566.59;;;-2.00;49.78
43298;BME280;28892;55.640;37.532;2023-11-18T01:45:22;99570.28;;;-2.18;50.29
43298;BME280;28892;55.640;37.532;2023-11-18T01:47:48;99568.22;;;-2.13;50.06
43298;BME280;28892;55.640;37.532;2023-11-18T01:50:14;99572.16;;;-2.06;49.92
43298;BME280;28892;55.640;37.532;2023-11-18T01:52:40;99572.59;;;-1.99;49.87
43298;BME280;28892;55.640;37.532;2023-11-18T01:55:06;99574.38;;;-2.00;49.73
43298;BME280;28892;55.640;37.532;2023-11-18T01:57:33;99574.09;;;-2.09;49.90
43298;BME280;28892;55.640;37.532;2023-11-18T01:59:59;99568.63;;;-2.19;50.19
43298;BME280;28892;55.640;37.532;2023-11-18T02:02:26;99567.78;;;-2.20;50.15
43298;BME280;28892;55.640;37.532;2023-11-18T02:04:51;99571.84;;;-2.30;50.38
43298;BME280;28892;55.640;37.532;2023-11-18T02:07:18;99568.41;;;-2.31;50.43
43298;BME280;28892;55.640;37.532;2023-11-18T02:09:44;99585.22;;;-2.22;50.38
43298;BME280;28892;55.640;37.532;2023-11-18T02:12:19;99575.91;;;-2.41;50.94
43298;BME280;28892;55.640;37.532;2023-11-18T02:14:47;99575.28;;;-2.30;50.74
43298;BME280;28892;55.640;37.532;2023-11-18T02:17:18;99574.88;;;-2.53;51.02
43298;BME280;28892;55.640;37.532;2023-11-18T02:19:43;99571.44;;;-2.39;50.83
43298;BME280;28892;55.640;37.532;2023-11-18T02:22:11;99568.31;;;-2.29;50.60
43298;BME280;28892;55.640;37.532;2023-11-18T02:24:37;99564.34;;;-2.20;50.50
43298;BME280;28892;55.640;37.532;2023-11-18T02:27:03;99578.91;;;-2.32;50.82
43298;BME280;28892;55.640;37.532;2023-11-18T02:29:35;99572.22;;;-2.36;50.81
43298;BME280;28892;55.640;37.532;2023-11-18T02:34:45;99568.03;;;-2.25;50.73
43298;BME280;28892;55.640;37.532;2023-11-18T02:37:14;99568.78;;;-2.22;50.61
43298;BME280;28892;55.640;37.532;2023-11-18T02:39:42;99575.56;;;-2.20;50.67
43298;BME280;28892;55.640;37.532;2023-11-18T02:42:09;99575.00;;;-2.25;50.89
43298;BME280;28892;55.640;37.532;2023-11-18T02:44:37;99569.44;;;-2.19;50.63
43298;BME280;28892;55.640;37.532;2023-11-18T02:47:03;99576.31;;;-2.18;50.74
43298;BME280;28892;55.640;37.532;2023-11-18T02:49:34;99579.47;;;-2.13;50.75
43298;BME280;28892;55.640;37.532;2023-11-18T02:51:59;99576.59;;;-2.08;50.76
43298;BME280;28892;55.640;37.532;2023-11-18T02:54:25;99574.38;;;-2.14;50.87
43298;BME280;28892;55.640;37.532;2023-11-18T02:56:51;99581.88;;;-2.24;50.91
43298;BME280;28892;55.640;37.532;2023-11-18T02:59:17;99578.53;;;-2.26;50.87
43298;BME280;28892;55.640;37.532;2023-11-18T03:01:42;99580.38;;;-2.28;51.01
43298;BME280;28892;55.640;37.532;2023-11-18T03:04:08;99575.19;;;-2.28;51.09
43298;BME280;28892;55.640;37.532;2023-11-18T03:06:35;99575.28;;;-2.30;51.01
43298;BME280;28892;55.640;37.532;2023-11-18T03:09:01;99577.16;;;-2.32;51.37
43298;BME280;28892;55.640;37.532;2023-11-18T03:11:28;99573.88;;;-2.35;51.15
43298;BME280;28892;55.640;37.532;2023-11-18T03:13:56;99581.69;;;-2.35;51.30
43298;BME280;28892;55.640;37.532;2023-11-18T03:16:23;99580.56;;;-2.31;51.26
43298;BME280;28892;55.640;37.532;2023-11-18T03:18:50;99588.34;;;-2.31;51.25
43298;BME280;28892;55.640;37.532;2023-11-18T03:21:16;99584.38;;;-2.22;51.13
43298;BME280;28892;55.640;37.532;2023-11-18T03:23:42;99579.41;;;-2.11;51.07
43298;BME280;28892;55.640;37.532;2023-11-18T03:26:08;99598.41;;;-2.11;51.02
43298;BME280;28892;55.640;37.532;2023-11-18T03:28:34;99590.88;;;-2.15;50.97
43298;BME280;28892;55.640;37.532;2023-11-18T03:31:05;99589.41;;;-2.05;51.04
43298;BME280;28892;55.640;37.532;2023-11-18T03:33:31;99590.72;;;-1.98;50.92
43298;BME280;28892;55.640;37.532;2023-11-18T03:35:56;99589.13;;;-2.00;50.74
43298;BME280;28892;55.640;37.532;2023-11-18T03:38:22;99584.50;;;-1.95;50.85
43298;BME280;28892;55.640;37.532;2023-11-18T03:40:49;99589.34;;;-2.03;50.61
43298;BME280;28892;55.640;37.532;2023-11-18T03:43:15;99588.13;;;-1.98;50.68
43298;BME280;28892;55.640;37.532;2023-11-18T03:45:40;99583.75;;;-1.97;50.43
43298;BME280;28892;55.640;37.532;2023-11-18T03:48:06;99585.81;;;-2.02;50.67
43298;BME280;28892;55.640;37.532;2023-11-18T03:50:33;99595.81;;;-2.11;50.87
43298;BME280;28892;55.640;37.532;2023-11-18T03:53:00;99595.00;;;-2.11;50.83
43298;BME280;28892;55.640;37.532;2023-11-18T03:55:28;99592.28;;;-2.09;50.77
43298;BME280;28892;55.640;37.532;2023-11-18T03:57:54;99585.59;;;-1.99;50.76
43298;BME280;28892;55.640;37.532;2023-11-18T04:00:21;99590.06;;;-2.01;50.78
43298;BME280;28892;55.640;37.532;2023-11-18T04:02:46;99587.00;;;-2.08;50.81
43298;BME280;28892;55.640;37.532;2023-11-18T04:05:13;99601.41;;;-2.02;50.95
43298;BME280;28892;55.640;37.532;2023-11-18T04:07:39;99594.16;;;-1.97;50.61
43298;BME280;28892;55.640;37.532;2023-11-18T04:10:07;99592.50;;;-1.84;50.61
43298;BME280;28892;55.640;37.532;2023-11-18T04:12:35;99597.47;;;-2.09;50.61
43298;BME280;28892;55.640;37.532;2023-11-18T04:15:02;99594.53;;;-2.03;51.17
43298;BME280;28892;55.640;37.532;2023-11-18T04:17:30;99593.66;;;-2.33;50.77
43298;BME280;28892;55.640;37.532;2023-11-18T04:19:56;99599.28;;;-2.41;51.32
43298;BME280;28892;55.640;37.532;2023-11-18T04:22:22;99593.81;;;-2.36;51.55
43298;BME280;28892;55.640;37.532;2023-11-18T04:24:48;99599.41;;;-2.28;51.41
43298;BME280;28892;55.640;37.532;2023-11-18T04:27:13;99607.34;;;-2.15;51.46
43298;BME280;28892;55.640;37.532;2023-11-18T04:29:39;99603.81;;;-2.44;50.98
43298;BME280;28892;55.640;37.532;2023-11-18T04:32:06;99606.13;;;-2.54;51.45
43298;BME280;28892;55.640;37.532;2023-11-18T04:34:37;99603.81;;;-2.44;51.59
43298;BME280;28892;55.640;37.532;2023-11-18T04:37:06;99610.53;;;-2.40;51.74
43298;BME280;28892;55.640;37.532;2023-11-18T04:39:32;99607.72;;;-2.51;51.86
43298;BME280;28892;55.640;37.532;2023-11-18T04:41:57;99603.59;;;-2.25;52.11
43298;BME280;28892;55.640;37.532;2023-11-18T04:44:23;99611.66;;;-2.30;51.89
43298;BME280;28892;55.640;37.532;2023-11-18T04:46:49;99614.31;;;-2.46;51.76
43298;BME280;28892;55.640;37.532;2023-11-18T04:49:15;99607.34;;;-2.45;52.11
43298;BME280;28892;55.640;37.532;2023-11-18T04:51:41;99601.16;;;-2.43;52.30
43298;BME280;28892;55.640;37.532;2023-11-18T04:54:06;99595.47;;;-2.49;52.16
43298;BME280;28892;55.640;37.532;2023-11-18T04:56:33;99592.41;;;-2.56;52.05
43298;BME280;28892;55.640;37.532;2023-11-18T04:59:00;99592.69;;;-2.46;52.39
43298;BME280;28892;55.640;37.532;2023-11-18T05:01:26;99600.31;;;-2.43;52.26
43298;BME280;28892;55.640;37.532;2023-11-18T05:03:52;99601.34;;;-2.31;52.35
43298;BME280;28892;55.640;37.532;2023-11-18T05:06:18;99604.31;;;-2.37;52.38
43298;BME280;28892;55.640;37.532;2023-11-18T05:08:45;99595.88;;;-2.27;52.69
43298;BME280;28892;55.640;37.532;2023-11-18T05:11:11;99599.88;;;-2.35;52.45
43298;BME280;28892;55.640;37.532;2023-11-18T05:13:38;99608.81;;;-2.25;52.60
43298;BME280;28892;55.640;37.532;2023-11-18T05:16:05;99599.97;;;-2.22;52.75
43298;BME280;28892;55.640;37.532;2023-11-18T05:18:31;99612.94;;;-2.37;52.70
43298;BME280;28892;55.640;37.532;2023-11-18T05:21:01;99610.53;;;-2.40;53.01
43298;BME280;28892;55.640;37.532;2023-11-18T05:23:28;99611.28;;;-2.38;53.05
43298;BME280;28892;55.640;37.532;2023-11-18T05:25:55;99613.00;;;-2.53;52.98
43298;BME280;28892;55.640;37.532;2023-11-18T05:28:21;99620.38;;;-2.61;52.94
43298;BME280;28892;55.640;37.532;2023-11-18T05:30:47;99622.78;;;-2.42;53.46
43298;BME280;28892;55.640;37.532;2023-11-18T05:33:13;99615.53;;;-2.37;53.38
43298;BME280;28892;55.640;37.532;2023-11-18T05:35:43;99616.00;;;-2.45;53.31
43298;BME280;28892;55.640;37.532;2023-11-18T05:38:17;99620.34;;;-2.45;53.53
43298;BME280;28892;55.640;37.532;2023-11-18T05:40:45;99624.53;;;-2.43;53.23
43298;BME280;28892;55.640;37.532;2023-11-18T05:43:30;99620.53;;;-2.48;53.31
43298;BME280;28892;55.640;37.532;2023-11-18T05:46:02;99632.69;;;-2.49;53.74
43298;BME280;28892;55.640;37.532;2023-11-18T05:48:45;99632.09;;;-2.54;53.89
43298;BME280;28892;55.640;37.532;2023-11-18T05:51:11;99633.28;;;-2.60;54.01
43298;BME280;28892;55.640;37.532;2023-11-18T05:53:40;99635.97;;;-2.61;54.06
43298;BME280;28892;55.640;37.532;2023-11-18T05:56:07;99635.69;;;-2.57;54.17
43298;BME280;28892;55.640;37.532;2023-11-18T05:58:33;99637.63;;;-2.60;54.19
43298;BME280;28892;55.640;37.532;2023-11-18T06:00:59;99636.88;;;-2.62;54.27
43298;BME280;28892;55.640;37.532;2023-11-18T06:03:26;99638.19;;;-2.70;54.22
43298;BME280;28892;55.640;37.532;2023-11-18T06:05:52;99632.13;;;-2.70;54.43
43298;BME280;28892;55.640;37.532;2023-11-18T06:08:18;99646.38;;;-2.77;54.43
43298;BME280;28892;55.640;37.532;2023-11-18T06:10:44;99646.63;;;-2.82;54.36
43298;BME280;28892;55.640;37.532;2023-11-18T06:13:10;99645.44;;;-2.76;54.58
43298;BME280;28892;55.640;37.532;2023-11-18T06:15:38;99647.78;;;-2.72;54.49
43298;BME280;28892;55.640;37.532;2023-11-18T06:18:04;99643.44;;;-2.71;54.47
43298;BME280;28892;55.640;37.532;2023-11-18T06:20:33;99650.38;;;-2.72;54.36
43298;BME280;28892;55.640;37.532;2023-11-18T06:22:58;99652.66;;;-2.65;54.55
43298;BME280;28892;55.640;37.532;2023-11-18T06:25:25;99650.38;;;-2.56;54.44
43298;BME280;28892;55.640;37.532;2023-11-18T06:27:54;99644.28;;;-2.55;54.23
43298;BME280;28892;55.640;37.532;2023-11-18T06:30:19;99655.16;;;-2.48;54.38
43298;BME280;28892;55.640;37.532;2023-11-18T06:32:48;99645.38;;;-2.44;54.14
43298;BME280;28892;55.640;37.532;2023-11-18T06:35:13;99645.13;;;-2.40;54.19
43298;BME280;28892;55.640;37.532;2023-11-18T06:37:40;99650.66;;;-2.30;54.05
43298;BME280;28892;55.640;37.532;2023-11-18T06:40:07;99650.28;;;-2.23;53.68
43298;BME280;28892;55.640;37.532;2023-11-18T06:42:43;99654.91;;;-2.29;53.72
43298;BME280;28892;55.640;37.532;2023-11-18T06:45:12;99652.25;;;-2.27;53.80
43298;BME280;28892;55.640;37.532;2023-11-18T06:47:39;99670.31;;;-2.26;53.73
43298;BME280;28892;55.640;37.532;2023-11-18T06:50:08;99666.97;;;-2.28;53.78
43298;BME280;28892;55.640;37.532;2023-11-18T06:52:38;99657.44;;;-2.27;53.59
43298;BME280;28892;55.640;37.532;2023-11-18T06:55:04;99664.47;;;-2.29;53.81
43298;BME280;28892;55.640;37.532;2023-11-18T06:57:30;99659.00;;;-2.25;53.67
43298;BME280;28892;55.640;37.532;2023-11-18T06:59:56;99665.72;;;-2.20;53.60
43298;BME280;28892;55.640;37.532;2023-11-18T07:02:22;99663.75;;;-2.17;53.71
43298;BME280;28892;55.640;37.532;2023-11-18T07:04:48;99662.41;;;-2.08;53.61
43298;BME280;28892;55.640;37.532;2023-11-18T07:07:13;99662.47;;;-2.09;53.58
43298;BME280;28892;55.640;37.532;2023-11-18T07:09:39;99654.13;;;-2.15;53.58
43298;BME280;28892;55.640;37.532;2023-11-18T07:12:05;99660.25;;;-2.16;53.70
43298;BME280;28892;55.640;37.532;2023-11-18T07:14:32;99669.19;;;-2.05;53.60
43298;BME280;28892;55.640;37.532;2023-11-18T07:16:58;99669.34;;;-2.08;53.53
43298;BME280;28892;55.640;37.532;2023-11-18T07:19:24;99668.06;;;-2.01;53.57
43298;BME280;28892;55.640;37.532;2023-11-18T07:21:50;99661.75;;;-1.97;53.54
43298;BME280;28892;55.640;37.532;2023-11-18T07:24:16;99654.06;;;-1.99;53.38
43298;BME280;28892;55.640;37.532;2023-11-18T07:26:42;99657.13;;;-1.92;53.47
43298;BME280;28892;55.640;37.532;2023-11-18T07:29:09;99661.66;;;-1.81;53.19
43298;BME280;28892;55.640;37.532;2023-11-18T07:31:37;99665.50;;;-1.72;52.95
43298;BME280;28892;55.640;37.532;2023-11-18T07:34:03;99663.25;;;-1.78;52.86
43298;BME280;28892;55.640;37.532;2023-11-18T07:36:29;99672.38;;;-1.71;53.27
43298;BME280;28892;55.640;37.532;2023-11-18T07:38:55;99668.09;;;-1.58;53.12
43298;BME280;28892;55.640;37.532;2023-11-18T07:41:24;99673.56;;;-1.48;52.89
43298;BME280;28892;55.640;37.532;2023-11-18T07:43:50;99669.13;;;-1.46;52.90
43298;BME280;28892;55.640;37.532;2023-11-18T07:46:16;99676.34;;;-1.36;52.52
43298;BME280;28892;55.640;37.532;2023-11-18T07:48:42;99677.38;;;-1.24;51.37
43298;BME280;28892;55.640;37.532;2023-11-18T07:51:08;99674.13;;;-1.28;51.30
43298;BME280;28892;55.640;37.532;2023-11-18T07:53:34;99662.50;;;-1.22;51.97
43298;BME280;28892;55.640;37.532;2023-11-18T07:56:01;99676.16;;;-1.19;52.41
43298;BME280;28892;55.640;37.532;2023-11-18T07:58:28;99660.13;;;-0.98;51.97
43298;BME280;28892;55.640;37.532;2023-11-18T08:00:54;99666.19;;;-0.70;51.03
43298;BME280;28892;55.640;37.532;2023-11-18T08:03:20;99662.78;;;1.71;47.45
43298;BME280;28892;55.640;37.532;2023-11-18T08:05:56;99656.69;;;4.27;42.74
43298;BME280;28892;55.640;37.532;2023-11-18T08:08:23;99656.22;;;6.41;39.58
43298;BME280;28892;55.640;37.532;2023-11-18T08:10:52;99659.91;;;8.14;37.41
43298;BME280;28892;55.640;37.532;2023-11-18T08:13:21;99660.53;;;9.20;34.83
43298;BME280;28892;55.640;37.532;2023-11-18T08:15:46;99665.88;;;9.53;32.84
43298;BME280;28892;55.640;37.532;2023-11-18T08:18:13;99665.53;;;10.23;32.55
43298;BME280;28892;55.640;37.532;2023-11-18T08:20:39;99667.72;;;10.75;32.84
43298;BME280;28892;55.640;37.532;2023-11-18T08:23:05;99663.34;;;11.23;30.81
43298;BME280;28892;55.640;37.532;2023-11-18T08:25:30;99661.38;;;12.10;32.29
43298;BME280;28892;55.640;37.532;2023-11-18T08:27:59;99669.09;;;12.35;29.54
43298;BME280;28892;55.640;37.532;2023-11-18T08:30:26;99657.06;;;12.69;30.25
43298;BME280;28892;55.640;37.532;2023-11-18T08:32:52;99652.81;;;13.26;31.92
43298;BME280;28892;55.640;37.532;2023-11-18T08:35:18;99661.69;;;13.12;28.03
43298;BME280;28892;55.640;37.532;2023-11-18T08:37:44;99654.63;;;12.37;27.34
43298;BME280;28892;55.640;37.532;2023-11-18T08:40:13;99653.41;;;11.86;29.24
43298;BME280;28892;55.640;37.532;2023-11-18T08:42:48;99654.25;;;12.40;29.67
43298;BME280;28892;55.640;37.532;2023-11-18T08:45:16;99651.28;;;12.80;29.97
43298;BME280;28892;55.640;37.532;2023-11-18T08:47:48;99645.81;;;13.04;28.78
43298;BME280;28892;55.640;37.532;2023-11-18T08:50:15;99644.75;;;13.20;29.79
43298;BME280;28892;55.640;37.532;2023-11-18T08:52:45;99646.47;;;13.27;30.23
43298;BME280;28892;55.640;37.532;2023-11-18T08:55:14;99647.03;;;13.23;27.31
43298;BME280;28892;55.640;37.532;2023-11-18T08:57:45;99643.78;;;12.54;27.00
43298;BME280;28892;55.640;37.532;2023-11-18T09:00:18;99656.94;;;12.02;27.91
43298;BME280;28892;55.640;37.532;2023-11-18T09:03:03;99653.97;;;11.97;29.53
43298;BME280;28892;55.640;37.532;2023-11-18T09:05:32;99653.75;;;12.22;30.27
43298;BME280;28892;55.640;37.532;2023-11-18T09:07:58;99651.56;;;12.70;30.39
43298;BME280;28892;55.640;37.532;2023-11-18T09:10:28;99656.59;;;12.80;26.34
43298;BME280;28892;55.640;37.532;2023-11-18T09:12:54;99654.31;;;12.32;26.77
43298;BME280;28892;55.640;37.532;2023-11-18T09:15:20;99643.63;;;11.87;26.22
43298;BME280;28892;55.640;37.532;2023-11-18T09:17:49;99653.81;;;11.05;26.93
43298;BME280;28892;55.640;37.532;2023-11-18T09:20:15;99654.72;;;10.49;28.38
43298;BME280;28892;55.640;37.532;2023-11-18T09:22:48;99652.13;;;10.72;28.13
43298;BME280;28892;55.640;37.532;2023-11-18T09:25:14;99650.84;;;10.68;27.51
43298;BME280;28892;55.640;37.532;2023-11-18T09:27:40;99650.41;;;10.48;26.82
43298;BME280;28892;55.640;37.532;2023-11-18T09:30:07;99658.88;;;10.27;27.55
43298;BME280;28892;55.640;37.532;2023-11-18T09:32:40;99651.41;;;10.30;27.44
43298;BME280;28892;55.640;37.532;2023-11-18T09:35:08;99653.97;;;9.82;28.39
43298;BME280;28892;55.640;37.532;2023-11-18T09:37:35;99649.63;;;10.14;27.81
43298;BME280;28892;55.640;37.532;2023-11-18T09:40:02;99656.25;;;10.18;29.05
43298;BME280;28892;55.640;37.532;2023-11-18T09:42:37;99657.25;;;10.17;29.05
43298;BME280;28892;55.640;37.532;2023-11-18T09:45:04;99653.97;;;10.72;29.18
43298;BME280;28892;55.640;37.532;2023-11-18T09:47:37;99652.84;;;10.98;29.80
43298;BME280;28892;55.640;37.532;2023-11-18T09:50:08;99645.69;;;11.30;27.36
43298;BME280;28892;55.640;37.532;2023-11-18T09:52:39;99650.34;;;11.28;27.89
43298;BME280;28892;55.640;37.532;2023-11-18T09:55:15;99650.00;;;11.31;28.66
43298;BME280;28892;55.640;37.532;2023-11-18T09:57:47;99642.63;;;11.41;26.81
43298;BME280;28892;55.640;37.532;2023-11-18T10:00:23;99652.66;;;11.08;27.23
43298;BME280;28892;55.640;37.532;2023-11-18T10:02:58;99651.78;;;10.84;29.03
43298;BME280;28892;55.640;37.532;2023-11-18T10:05:28;99649.63;;;10.31;29.29
43298;BME280;28892;55.640;37.532;2023-11-18T10:07:55;99655.91;;;10.78;29.56
43298;BME280;28892;55.640;37.532;2023-11-18T10:10:24;99653.03;;;8.56;28.63
43298;BME280;28892;55.640;37.532;2023-11-18T10:12:57;99653.38;;;7.09;32.37
43298;BME280;28892;55.640;37.532;2023-11-18T10:15:37;99649.81;;;5.86;31.99
43298;BME280;28892;55.640;37.532;2023-11-18T10:18:05;99645.97;;;5.22;33.89
43298;BME280;28892;55.640;37.532;2023-11-18T10:23:08;99639.94;;;7.30;33.61
43298;BME280;28892;55.640;37.532;2023-11-18T10:25:38;99636.88;;;8.59;31.94
43298;BME280;28892;55.640;37.532;2023-11-18T10:28:08;99633.25;;;9.19;30.82
43298;BME280;28892;55.640;37.532;2023-11-18T10:30:46;99633.94;;;9.79;30.06
43298;BME280;28892;55.640;37.532;2023-11-18T10:33:14;99633.28;;;9.86;29.52
43298;BME280;28892;55.640;37.532;2023-11-18T10:35:51;99635.91;;;8.07;29.82
43298;BME280;28892;55.640;37.532;2023-11-18T10:38:17;99638.53;;;7.08;30.00
43298;BME280;28892;55.640;37.532;2023-11-18T10:40:44;99637.41;;;6.36;31.30
43298;BME280;28892;55.640;37.532;2023-11-18T10:43:13;99631.53;;;5.75;32.95
43298;BME280;28892;55.640;37.532;2023-11-18T10:45:42;99640.16;;;4.36;33.32
43298;BME280;28892;55.640;37.532;2023-11-18T10:48:08;99636.41;;;5.21;32.99
43298;BME280;28892;55.640;37.532;2023-11-18T10:50:38;99637.81;;;4.74;33.29
43298;BME280;28892;55.640;37.532;2023-11-18T10:53:26;99640.88;;;4.07;34.28
43298;BME280;28892;55.640;37.532;2023-11-18T10:55:53;99637.31;;;4.18;33.28
43298;BME280;28892;55.640;37.532;2023-11-18T10:58:20;99636.50;;;4.99;33.32
43298;BME280;28892;55.640;37.532;2023-11-18T11:00:51;99641.50;;;5.81;31.73
43298;BME280;28892;55.640;37.532;2023-11-18T11:03:26;99637.50;;;7.37;30.99
43298;BME280;28892;55.640;37.532;2023-11-18T11:06:02;99630.63;;;8.07;31.99
43298;BME280;28892;55.640;37.532;2023-11-18T11:08:55;99630.06;;;9.07;31.51
43298;BME280;28892;55.640;37.532;2023-11-18T11:11:24;99631.94;;;8.37;27.43
43298;BME280;28892;55.640;37.532;2023-11-18T11:13:55;99633.03;;;8.96;29.42
43298;BME280;28892;55.640;37.532;2023-11-18T11:16:22;99636.06;;;9.26;30.96
43298;BME280;28892;55.640;37.532;2023-11-18T11:18:55;99639.22;;;9.46;29.98
43298;BME280;28892;55.640;37.532;2023-11-18T11:21:26;99639.72;;;9.42;31.48
43298;BME280;28892;55.640;37.532;2023-11-18T11:24:28;99640.59;;;7.95;30.94
43298;BME280;28892;55.640;37.532;2023-11-18T11:27:09;99642.44;;;6.00;30.48
43298;BME280;28892;55.640;37.532;2023-11-18T11:30:02;99645.59;;;4.85;33.72
43298;BME280;28892;55.640;37.532;2023-11-18T11:33:14;99645.47;;;4.46;32.56
43298;BME280;28892;55.640;37.532;2023-11-18T11:35:48;99644.56;;;3.62;33.84
43298;BME280;28892;55.640;37.532;2023-11-18T11:38:16;99647.28;;;3.39;35.04
43298;BME280;28892;55.640;37.532;2023-11-18T11:41:04;99641.91;;;3.41;35.16
43298;BME280;28892;55.640;37.532;2023-11-18T11:43:31;99651.03;;;3.25;34.91
43298;BME280;28892;55.640;37.532;2023-11-18T11:46:14;99642.81;;;3.18;35.13
43298;BME280;28892;55.640;37.532;2023-11-18T11:48:51;99643.56;;;3.09;34.90
43298;BME280;28892;55.640;37.532;2023-11-18T11:51:24;99639.34;;;2.74;35.17
43298;BME280;28892;55.640;37.532;2023-11-18T11:56:42;99640.53;;;2.13;36.16
43298;BME280;28892;55.640;37.532;2023-11-18T11:59:16;99639.53;;;1.91;36.22
43298;BME280;28892;55.640;37.532;2023-11-18T12:01:46;99634.72;;;1.73;36.73
43298;BME280;28892;55.640;37.532;2023-11-18T12:04:23;99634.16;;;1.70;37.00
43298;BME280;28892;55.640;37.532;2023-11-18T12:06:54;99644.81;;;1.66;37.07
43298;BME280;28892;55.640;37.532;2023-11-18T12:09:22;99637.50;;;1.83;36.77
43298;BME280;28892;55.640;37.532;2023-11-18T12:11:48;99638.41;;;2.06;36.70
43298;BME280;28892;55.640;37.532;2023-11-18T12:14:14;99637.09;;;2.35;36.63
43298;BME280;28892;55.640;37.532;2023-11-18T12:17:05;99642.31;;;2.69;36.84
43298;BME280;28892;55.640;37.532;2023-11-18T12:19:47;99642.41;;;2.79;36.33
43298;BME280;28892;55.640;37.532;2023-11-18T12:22:16;99637.97;;;3.02;36.82
43298;BME280;28892;55.640;37.532;2023-11-18T12:32:58;99648.75;;;2.76;36.13
43298;BME280;28892;55.640;37.532;2023-11-18T12:35:29;99647.91;;;2.19;36.22
43298;BME280;28892;55.640;37.532;2023-11-18T12:40:42;99658.25;;;-0.41;39.24
43298;BME280;28892;55.640;37.532;2023-11-18T12:43:16;99659.63;;;-0.76;40.28
43298;BME280;28892;55.640;37.532;2023-11-18T12:48:17;99659.78;;;-0.79;40.96
43298;BME280;28892;55.640;37.532;2023-11-18T12:50:53;99661.19;;;-1.15;41.71
43298;BME280;28892;55.640;37.532;2023-11-18T12:53:21;99662.50;;;-1.08;42.00
43298;BME280;28892;55.640;37.532;2023-11-18T12:55:50;99663.53;;;-0.83;41.74
43298;BME280;28892;55.640;37.532;2023-11-18T12:58:18;99656.44;;;-0.81;41.62
43298;BME280;28892;55.640;37.532;2023-11-18T13:00:44;99661.31;;;-0.89;41.91
43298;BME280;28892;55.640;37.532;2023-11-18T13:03:11;99654.31;;;-1.31;43.24
43298;BME280;28892;55.640;37.532;2023-11-18T13:05:41;99651.38;;;-1.53;44.07
43298;BME280;28892;55.640;37.532;2023-11-18T13:08:13;99657.22;;;-1.35;43.93
43298;BME280;28892;55.640;37.532;2023-11-18T13:10:41;99654.31;;;-1.31;44.04
43298;BME280;28892;55.640;37.532;2023-11-18T13:13:07;99657.78;;;-1.59;44.41
43298;BME280;28892;55.640;37.532;2023-11-18T13:15:35;99658.97;;;-1.36;44.05
43298;BME280;28892;55.640;37.532;2023-11-18T13:18:02;99664.34;;;-1.24;44.28
43298;BME280;28892;55.640;37.532;2023-11-18T13:20:35;99654.63;;;-0.93;43.40
43298;BME280;28892;55.640;37.532;2023-11-18T13:23:01;99653.25;;;-0.72;42.92